createdAt,value
2019-06-26T00:00:06.694Z,1014.05
2019-06-26T00:01:07.126Z,1014.09
2019-06-26T00:02:07.611Z,1014.13
2019-06-26T00:03:08.031Z,1014.09
2019-06-26T00:04:08.510Z,1014.09
2019-06-26T00:05:08.957Z,1014.15
2019-06-26T00:06:09.445Z,1014.16
2019-06-26T00:07:09.891Z,1014.15
2019-06-26T00:08:10.404Z,1014.15
2019-06-26T00:09:10.828Z,1014.17
2019-06-26T00:10:11.311Z,1014.19
2019-06-26T00:11:11.741Z,1014.19
2019-06-26T00:12:12.277Z,1014.20
2019-06-26T00:13:25.747Z,1014.24
2019-06-26T00:14:19.110Z,1014.26
2019-06-26T00:15:20.575Z,1014.21
2019-06-26T00:16:21.000Z,1014.21
2019-06-26T00:17:21.549Z,1014.29
2019-06-26T00:18:21.990Z,1014.25
2019-06-26T00:19:22.499Z,1014.23
2019-06-26T00:20:22.923Z,1014.27
2019-06-26T00:21:23.433Z,1014.21
2019-06-26T00:22:23.881Z,1014.25
2019-06-26T00:23:24.365Z,1014.29
2019-06-26T00:24:24.788Z,1014.30
2019-06-26T00:25:25.217Z,1014.30
2019-06-26T00:26:25.648Z,1014.25
2019-06-26T00:27:26.177Z,1014.31
2019-06-26T00:28:26.609Z,1014.25
2019-06-26T00:29:27.067Z,1014.26
2019-06-26T00:30:27.506Z,1014.32
2019-06-26T00:31:28.018Z,1014.28
2019-06-26T00:32:28.482Z,1014.33
2019-06-26T00:33:28.948Z,1014.33
2019-06-26T00:34:29.377Z,1014.33
2019-06-26T00:35:29.877Z,1014.35
2019-06-26T00:36:30.309Z,1014.39
2019-06-26T00:37:30.802Z,1014.35
2019-06-26T00:38:31.227Z,1014.40
2019-06-26T00:39:31.705Z,1014.41
2019-06-26T00:40:32.145Z,1014.39
2019-06-26T00:41:39.090Z,1014.39
2019-06-26T00:42:39.536Z,1014.40
2019-06-26T00:43:42.631Z,1014.43
2019-06-26T00:44:43.378Z,1014.41
2019-06-26T00:45:43.926Z,1014.42
2019-06-26T00:46:44.364Z,1014.41
2019-06-26T00:47:44.896Z,1014.39
2019-06-26T00:48:45.329Z,1014.47
2019-06-26T00:49:45.791Z,1014.50
2019-06-26T00:50:46.210Z,1014.46
2019-06-26T00:51:46.736Z,1014.50
2019-06-26T00:52:47.173Z,1014.47
2019-06-26T00:53:49.610Z,1014.52
2019-06-26T00:54:50.030Z,1014.54
2019-06-26T00:55:50.561Z,1014.54
2019-06-26T00:56:50.993Z,1014.55
2019-06-26T00:57:51.517Z,1014.48
2019-06-26T00:58:51.933Z,1014.58
2019-06-26T00:59:52.423Z,1014.55
2019-06-26T01:00:52.854Z,1014.63
2019-06-26T01:01:53.352Z,1014.53
2019-06-26T01:02:53.795Z,1014.56
2019-06-26T01:03:54.292Z,1014.57
2019-06-26T01:04:54.721Z,1014.62
2019-06-26T01:05:55.224Z,1014.57
2019-06-26T01:06:55.734Z,1014.59
2019-06-26T01:07:56.259Z,1014.60
2019-06-26T01:08:56.682Z,1014.67
2019-06-26T01:09:57.196Z,1014.58
2019-06-26T01:10:57.631Z,1014.65
2019-06-26T01:11:59.207Z,1014.69
2019-06-26T01:12:59.646Z,1014.68
2019-06-26T01:14:01.134Z,1014.66
2019-06-26T01:15:01.675Z,1014.68
2019-06-26T01:16:02.165Z,1014.69
2019-06-26T01:17:02.614Z,1014.64
2019-06-26T01:18:11.711Z,1014.67
2019-06-26T01:19:12.145Z,1014.61
2019-06-26T01:20:21.195Z,1014.67
2019-06-26T01:21:21.617Z,1014.69
2019-06-26T01:22:23.092Z,1014.67
2019-06-26T01:23:23.521Z,1014.66
2019-06-26T01:24:23.989Z,1014.69
2019-06-26T01:25:24.414Z,1014.67
2019-06-26T01:26:24.870Z,1014.67
2019-06-26T01:27:25.306Z,1014.70
2019-06-26T01:28:25.805Z,1014.68
2019-06-26T01:29:26.236Z,1014.68
2019-06-26T01:30:26.750Z,1014.72
2019-06-26T01:31:27.168Z,1014.68
2019-06-26T01:32:28.743Z,1014.73
2019-06-26T01:33:29.178Z,1014.63
2019-06-26T01:34:36.712Z,1014.72
2019-06-26T01:35:37.171Z,1014.68
2019-06-26T01:36:39.705Z,1014.74
2019-06-26T01:37:40.148Z,1014.74
2019-06-26T01:38:41.654Z,1014.72
2019-06-26T01:39:42.090Z,1014.73
2019-06-26T01:40:42.589Z,1014.79
2019-06-26T01:41:43.017Z,1014.73
2019-06-26T01:42:43.560Z,1014.74
2019-06-26T01:43:43.993Z,1014.78
2019-06-26T01:44:45.482Z,1014.81
2019-06-26T01:45:46.004Z,1014.77
2019-06-26T01:46:46.520Z,1014.77
2019-06-26T01:47:46.974Z,1014.76
2019-06-26T01:48:47.453Z,1014.78
2019-06-26T01:49:47.880Z,1014.79
2019-06-26T01:50:48.409Z,1014.76
2019-06-26T01:51:48.853Z,1014.82
2019-06-26T01:52:49.360Z,1014.86
2019-06-26T01:53:49.861Z,1014.80
2019-06-26T01:54:50.525Z,1014.81
2019-06-26T01:55:51.085Z,1014.85
2019-06-26T01:56:51.601Z,1014.84
2019-06-26T01:57:52.047Z,1014.88
2019-06-26T01:58:52.481Z,1014.87
2019-06-26T01:59:52.955Z,1014.92
2019-06-26T02:00:54.500Z,1014.94
2019-06-26T02:01:54.933Z,1015.01
2019-06-26T02:02:55.468Z,1014.95
2019-06-26T02:03:55.885Z,1014.94
2019-06-26T02:04:56.370Z,1014.92
2019-06-26T02:05:56.795Z,1014.93
2019-06-26T02:06:57.317Z,1014.98
2019-06-26T02:07:57.759Z,1014.99
2019-06-26T02:08:58.251Z,1014.97
2019-06-26T02:09:58.683Z,1015.00
2019-06-26T02:10:59.180Z,1014.98
2019-06-26T02:12:00.541Z,1014.96
2019-06-26T02:13:01.178Z,1014.97
2019-06-26T02:14:01.611Z,1014.95
2019-06-26T02:15:02.217Z,1014.96
2019-06-26T02:16:02.674Z,1014.95
2019-06-26T02:17:03.210Z,1015.04
2019-06-26T02:18:03.659Z,1014.99
2019-06-26T02:19:10.596Z,1015.07
2019-06-26T02:20:11.086Z,1014.95
2019-06-26T02:21:12.554Z,1015.03
2019-06-26T02:22:12.978Z,1014.98
2019-06-26T02:23:13.426Z,1015.05
2019-06-26T02:24:13.869Z,1015.03
2019-06-26T02:25:14.404Z,1015.03
2019-06-26T02:26:14.835Z,1015.08
2019-06-26T02:27:15.341Z,1015.02
2019-06-26T02:28:15.783Z,1015.03
2019-06-26T02:29:16.275Z,1015.09
2019-06-26T02:30:16.716Z,1015.05
2019-06-26T02:31:17.215Z,1015.04
2019-06-26T02:32:17.650Z,1015.11
2019-06-26T02:33:28.629Z,1015.06
2019-06-26T02:34:29.053Z,1015.09
2019-06-26T02:35:29.527Z,1015.12
2019-06-26T02:36:29.964Z,1015.09
2019-06-26T02:37:30.462Z,1015.08
2019-06-26T02:38:30.915Z,1015.09
2019-06-26T02:39:31.398Z,1015.08
2019-06-26T02:40:31.837Z,1015.11
2019-06-26T02:41:32.334Z,1015.10
2019-06-26T02:42:32.766Z,1015.14
2019-06-26T02:43:33.300Z,1015.15
2019-06-26T02:44:51.319Z,1015.15
2019-06-26T02:45:40.133Z,1015.10
2019-06-26T02:46:41.581Z,1015.12
2019-06-26T02:47:42.040Z,1015.13
2019-06-26T02:48:42.519Z,1015.11
2019-06-26T02:49:42.963Z,1015.13
2019-06-26T02:50:43.472Z,1015.13
2019-06-26T02:51:43.906Z,1015.15
2019-06-26T02:52:44.423Z,1015.16
2019-06-26T02:53:44.867Z,1015.18
2019-06-26T02:54:46.461Z,1015.15
2019-06-26T02:55:46.889Z,1015.15
2019-06-26T02:56:47.394Z,1015.17
2019-06-26T02:57:47.950Z,1015.19
2019-06-26T02:58:48.431Z,1015.20
2019-06-26T02:59:48.858Z,1015.24
2019-06-26T03:00:49.380Z,1015.26
2019-06-26T03:01:49.797Z,1015.19
2019-06-26T03:02:50.336Z,1015.22
2019-06-26T03:03:50.754Z,1015.26
2019-06-26T03:04:51.236Z,1015.28
2019-06-26T03:05:51.671Z,1015.30
2019-06-26T03:19:52.265Z,1015.43
2019-06-26T03:20:52.762Z,1015.43
2019-06-26T03:21:53.189Z,1015.47
2019-06-26T03:22:53.625Z,1015.48
2019-06-26T03:23:54.072Z,1015.42
2019-06-26T03:24:54.504Z,1015.51
2019-06-26T03:25:54.950Z,1015.49
2019-06-26T03:26:55.478Z,1015.52
2019-06-26T03:27:55.900Z,1015.52
2019-06-26T03:28:56.434Z,1015.57
2019-06-26T03:29:56.861Z,1015.55
2019-06-26T03:30:57.289Z,1015.54
2019-06-26T03:31:57.758Z,1015.63
2019-06-26T03:32:58.205Z,1015.57
2019-06-26T03:33:58.725Z,1015.58
2019-06-26T03:34:59.166Z,1015.65
2019-06-26T03:35:59.638Z,1015.56
2019-06-26T03:37:00.098Z,1015.63
2019-06-26T03:38:00.678Z,1015.66
2019-06-26T03:39:01.134Z,1015.65
2019-06-26T03:40:01.978Z,1015.62
2019-06-26T03:41:02.465Z,1015.68
2019-06-26T03:42:02.956Z,1015.63
2019-06-26T03:43:03.472Z,1015.65
2019-06-26T03:44:03.995Z,1015.68
2019-06-26T03:45:04.442Z,1015.66
2019-06-26T03:46:04.919Z,1015.71
2019-06-26T03:47:05.351Z,1015.70
2019-06-26T03:48:05.894Z,1015.73
2019-06-26T03:49:06.335Z,1015.77
2019-06-26T04:08:07.146Z,1015.93
2019-06-26T04:09:07.618Z,1015.96
2019-06-26T04:10:08.074Z,1015.98
2019-06-26T04:11:08.519Z,1015.97
2019-06-26T04:12:10.042Z,1015.98
2019-06-26T04:13:10.496Z,1015.97
2019-06-26T04:14:11.006Z,1015.98
2019-06-26T04:15:11.443Z,1015.99
2019-06-26T04:16:11.919Z,1016.00
2019-06-26T04:17:12.363Z,1016.01
2019-06-26T04:18:12.842Z,1016.02
2019-06-26T04:19:13.328Z,1016.06
2019-06-26T04:20:13.874Z,1016.03
2019-06-26T04:21:14.312Z,1016.08
2019-06-26T04:22:14.815Z,1016.09
2019-06-26T04:23:15.244Z,1016.10
2019-06-26T04:24:15.801Z,1016.07
2019-06-26T04:25:16.225Z,1016.10
2019-06-26T04:26:17.706Z,1016.06
2019-06-26T04:27:18.152Z,1016.13
2019-06-26T04:28:18.651Z,1016.17
2019-06-26T04:29:19.184Z,1016.18
2019-06-26T04:30:20.706Z,1016.17
2019-06-26T04:31:21.137Z,1016.20
2019-06-26T04:32:21.628Z,1016.26
2019-06-26T04:33:22.090Z,1016.25
2019-06-26T04:34:22.666Z,1016.28
2019-06-26T04:35:23.103Z,1016.24
2019-06-26T04:36:23.593Z,1016.25
2019-06-26T04:37:24.075Z,1016.23
2019-06-26T04:38:24.571Z,1016.24
2019-06-26T04:39:24.997Z,1016.27
2019-06-26T04:40:25.464Z,1016.28
2019-06-26T04:41:25.940Z,1016.27
2019-06-26T04:42:26.502Z,1016.36
2019-06-26T04:43:26.972Z,1016.31
2019-06-26T04:44:27.438Z,1016.34
2019-06-26T04:45:27.873Z,1016.34
2019-06-26T04:46:30.322Z,1016.33
2019-06-26T04:47:30.791Z,1016.37
2019-06-26T04:48:31.431Z,1016.33
2019-06-26T04:49:31.921Z,1016.34
2019-06-26T04:50:32.506Z,1016.34
2019-06-26T04:51:32.973Z,1016.31
2019-06-26T04:52:33.486Z,1016.35
2019-06-26T04:53:34.062Z,1016.35
2019-06-26T04:54:34.607Z,1016.38
2019-06-26T04:55:35.089Z,1016.40
2019-06-26T04:56:35.557Z,1016.35
2019-06-26T04:57:36.032Z,1016.38
2019-06-26T04:58:36.635Z,1016.41
2019-06-26T04:59:37.081Z,1016.39
2019-06-26T05:00:37.629Z,1016.43
2019-06-26T05:01:38.063Z,1016.43
2019-06-26T05:02:38.567Z,1016.40
2019-06-26T05:03:39.031Z,1016.43
2019-06-26T05:04:39.502Z,1016.45
2019-06-26T05:05:40.333Z,1016.47
2019-06-26T05:06:40.967Z,1016.48
2019-06-26T05:07:41.508Z,1016.47
2019-06-26T05:08:43.658Z,1016.47
2019-06-26T05:09:45.087Z,1016.50
2019-06-26T05:10:45.845Z,1016.50
2019-06-26T05:11:46.470Z,1016.52
2019-06-26T05:12:47.176Z,1016.53
2019-06-26T05:13:47.801Z,1016.60
2019-06-26T05:15:25.160Z,1016.53
2019-06-26T05:16:25.691Z,1016.58
2019-06-26T05:20:06.567Z,1016.61
2019-06-26T05:21:23.766Z,1016.64
2019-06-26T05:22:24.409Z,1016.64
2019-06-26T05:33:38.550Z,1016.71
2019-06-26T05:34:39.267Z,1016.70
2019-06-26T05:35:39.886Z,1016.75
2019-06-26T05:36:40.701Z,1016.77
2019-06-26T05:37:41.466Z,1016.77
2019-06-26T05:38:43.131Z,1016.74
2019-06-26T05:39:43.700Z,1016.79
2019-06-26T05:40:44.569Z,1016.80
2019-06-26T05:41:45.055Z,1016.79
2019-06-26T05:42:45.656Z,1016.84
2019-06-26T05:43:46.241Z,1016.84
2019-06-26T05:44:47.942Z,1016.92
2019-06-26T05:45:48.427Z,1016.92
2019-06-26T05:46:51.020Z,1016.88
2019-06-26T05:47:51.581Z,1016.89
2019-06-26T05:48:52.223Z,1016.92
2019-06-26T05:49:52.756Z,1016.96
2019-06-26T05:50:53.245Z,1016.89
2019-06-26T05:51:53.754Z,1016.94
2019-06-26T05:52:54.293Z,1016.95
2019-06-26T05:53:55.142Z,1016.96
2019-06-26T05:54:55.645Z,1017.02
2019-06-26T05:55:56.659Z,1016.96
2019-06-26T05:56:57.290Z,1017.03
2019-06-26T05:57:57.905Z,1017.00
2019-06-26T05:58:59.501Z,1016.97
2019-06-26T06:00:00.174Z,1017.05
2019-06-26T06:01:00.825Z,1016.97
2019-06-26T06:02:01.385Z,1017.00
2019-06-26T06:03:02.029Z,1017.00
2019-06-26T06:04:02.542Z,1017.03
2019-06-26T06:05:04.230Z,1017.01
2019-06-26T06:06:04.729Z,1017.04
2019-06-26T06:07:05.336Z,1017.05
2019-06-26T06:08:05.857Z,1017.00
2019-06-26T06:09:06.489Z,1017.09
2019-06-26T06:10:07.017Z,1017.03
2019-06-26T06:11:07.553Z,1017.08
2019-06-26T06:12:08.271Z,1017.04
2019-06-26T06:13:08.792Z,1017.10
2019-06-26T06:14:09.320Z,1017.09
2019-06-26T06:15:09.887Z,1017.13
2019-06-26T06:16:10.457Z,1017.10
2019-06-26T06:17:10.965Z,1017.11
2019-06-26T06:18:11.621Z,1017.11
2019-06-26T06:19:12.125Z,1017.13
2019-06-26T06:20:12.779Z,1017.12
2019-06-26T06:21:13.286Z,1017.16
2019-06-26T06:22:13.811Z,1017.17
2019-06-26T06:23:15.086Z,1017.15
2019-06-26T06:24:15.528Z,1017.10
2019-06-26T06:25:15.965Z,1017.15
2019-06-26T06:26:16.417Z,1017.15
2019-06-26T06:27:16.877Z,1017.12
2019-06-26T06:28:17.333Z,1017.14
2019-06-26T06:29:17.803Z,1017.13
2019-06-26T06:30:18.372Z,1017.11
2019-06-26T06:31:18.806Z,1017.14
2019-06-26T06:32:21.245Z,1017.14
2019-06-26T06:33:21.684Z,1017.13
2019-06-26T06:34:22.144Z,1017.19
2019-06-26T06:35:22.579Z,1017.16
2019-06-26T06:44:17.589Z,1017.28
2019-06-26T06:45:18.067Z,1017.20
2019-06-26T06:46:18.505Z,1017.27
2019-06-26T06:47:18.939Z,1017.33
2019-06-26T06:48:19.402Z,1017.31
2019-06-26T06:49:19.932Z,1017.27
2019-06-26T06:50:20.476Z,1017.27
2019-06-26T06:51:20.965Z,1017.30
2019-06-26T06:52:21.535Z,1017.32
2019-06-26T06:53:22.011Z,1017.29
2019-06-26T06:54:22.617Z,1017.37
2019-06-26T06:55:23.071Z,1017.31
2019-06-26T06:56:23.549Z,1017.31
2019-06-26T06:57:23.994Z,1017.27
2019-06-26T06:58:39.993Z,1017.30
2019-06-26T06:59:40.447Z,1017.38
2019-06-26T07:00:40.947Z,1017.33
2019-06-26T07:01:46.312Z,1017.32
2019-06-26T07:02:46.777Z,1017.38
2019-06-26T07:03:47.311Z,1017.38
2019-06-26T07:04:47.776Z,1017.40
2019-06-26T07:05:48.216Z,1017.41
2019-06-26T07:06:48.662Z,1017.41
2019-06-26T07:07:49.106Z,1017.43
2019-06-26T07:09:04.471Z,1017.41
2019-06-26T07:10:04.931Z,1017.48
2019-06-26T07:11:05.373Z,1017.35
2019-06-26T07:12:05.807Z,1017.39
2019-06-26T07:13:06.256Z,1017.39
2019-06-26T07:14:06.700Z,1017.41
2019-06-26T07:15:07.163Z,1017.38
2019-06-26T07:16:07.602Z,1017.46
2019-06-26T07:17:19.932Z,1017.43
2019-06-26T07:18:14.452Z,1017.40
2019-06-26T07:19:14.883Z,1017.43
2019-06-26T07:20:15.368Z,1017.42
2019-06-26T07:21:15.881Z,1017.50
2019-06-26T07:22:16.313Z,1017.49
2019-06-26T07:23:17.766Z,1017.46
2019-06-26T07:24:18.233Z,1017.53
2019-06-26T07:25:18.709Z,1017.49
2019-06-26T07:26:19.148Z,1017.47
2019-06-26T07:27:19.787Z,1017.56
2019-06-26T07:28:20.364Z,1017.54
2019-06-26T07:29:21.200Z,1017.60
2019-06-26T07:30:21.820Z,1017.60
2019-06-26T07:31:22.403Z,1017.55
2019-06-26T07:32:23.703Z,1017.58
2019-06-26T07:33:24.183Z,1017.66
2019-06-26T07:34:24.671Z,1017.63
2019-06-26T07:35:25.161Z,1017.65
2019-06-26T07:36:25.672Z,1017.66
2019-06-26T07:37:26.182Z,1017.64
2019-06-26T07:38:26.706Z,1017.67
2019-06-26T07:39:27.731Z,1017.68
2019-06-26T07:40:28.208Z,1017.70
2019-06-26T07:41:29.020Z,1017.73
2019-06-26T07:42:29.486Z,1017.71
2019-06-26T07:43:30.924Z,1017.67
2019-06-26T07:44:31.403Z,1017.67
2019-06-26T07:45:31.944Z,1017.68
2019-06-26T07:46:32.369Z,1017.67
2019-06-26T07:47:43.189Z,1017.67
2019-06-26T07:48:39.285Z,1017.71
2019-06-26T07:49:44.128Z,1017.71
2019-06-26T07:50:44.592Z,1017.75
2019-06-26T07:51:47.128Z,1017.70
2019-06-26T07:52:47.558Z,1017.74
2019-06-26T07:53:48.065Z,1017.73
2019-06-26T07:54:48.511Z,1017.69
2019-06-26T07:55:49.006Z,1017.75
2019-06-26T07:56:49.492Z,1017.76
2019-06-26T07:57:50.046Z,1017.73
2019-06-26T07:58:50.479Z,1017.76
2019-06-26T07:59:51.064Z,1017.73
2019-06-26T08:00:51.543Z,1017.79
2019-06-26T08:01:54.977Z,1017.74
2019-06-26T08:02:55.393Z,1017.80
2019-06-26T08:03:55.813Z,1017.76
2019-06-26T08:04:56.268Z,1017.79
2019-06-26T08:05:56.693Z,1017.80
2019-06-26T08:06:57.141Z,1017.88
2019-06-26T08:07:57.662Z,1017.88
2019-06-26T08:08:58.104Z,1017.88
2019-06-26T08:09:58.557Z,1017.86
2019-06-26T08:10:59.082Z,1017.90
2019-06-26T08:11:59.509Z,1017.84
2019-06-26T08:13:00.048Z,1017.91
2019-06-26T08:14:00.703Z,1017.87
2019-06-26T08:15:01.159Z,1017.82
2019-06-26T08:16:01.659Z,1017.90
2019-06-26T08:17:02.141Z,1017.91
2019-06-26T08:18:02.575Z,1017.90
2019-06-26T08:19:03.012Z,1017.89
2019-06-26T08:20:03.473Z,1017.89
2019-06-26T08:21:12.052Z,1017.91
2019-06-26T08:22:10.368Z,1017.89
2019-06-26T08:23:10.975Z,1017.88
2019-06-26T08:24:11.421Z,1017.91
2019-06-26T08:25:11.916Z,1017.88
2019-06-26T08:26:12.516Z,1017.98
2019-06-26T08:27:13.344Z,1017.94
2019-06-26T08:28:13.882Z,1017.94
2019-06-26T08:29:14.317Z,1018.04
2019-06-26T08:30:14.851Z,1017.98
2019-06-26T08:31:15.301Z,1017.96
2019-06-26T08:32:15.814Z,1017.97
2019-06-26T08:33:16.245Z,1018.00
2019-06-26T08:34:16.821Z,1018.00
2019-06-26T08:35:17.273Z,1018.04
2019-06-26T08:36:17.773Z,1018.02
2019-06-26T08:37:18.246Z,1018.07
2019-06-26T08:38:18.797Z,1018.02
2019-06-26T08:39:19.225Z,1018.05
2019-06-26T08:40:19.816Z,1018.06
2019-06-26T08:41:20.281Z,1018.14
2019-06-26T08:42:20.775Z,1018.17
2019-06-26T08:43:21.274Z,1018.13
2019-06-26T08:44:21.820Z,1018.05
2019-06-26T08:45:22.266Z,1018.17
2019-06-26T08:46:22.750Z,1018.13
2019-06-26T08:47:23.193Z,1018.08
2019-06-26T08:48:38.969Z,1018.18
2019-06-26T08:49:30.118Z,1018.16
2019-06-26T08:50:30.696Z,1018.22
2019-06-26T08:51:31.133Z,1018.17
2019-06-26T08:52:31.581Z,1018.20
2019-06-26T08:53:32.015Z,1018.20
2019-06-26T08:54:32.465Z,1018.19
2019-06-26T08:55:32.983Z,1018.18
2019-06-26T08:56:33.443Z,1018.22
2019-06-26T08:57:33.948Z,1018.24
2019-06-26T08:58:34.391Z,1018.30
2019-06-26T08:59:34.832Z,1018.22
2019-06-26T09:00:35.295Z,1018.26
2019-06-26T09:01:35.798Z,1018.22
2019-06-26T09:02:36.231Z,1018.29
2019-06-26T09:03:36.660Z,1018.23
2019-06-26T09:04:37.094Z,1018.25
2019-06-26T09:05:47.542Z,1018.27
2019-06-26T09:06:43.960Z,1018.25
2019-06-26T09:07:44.511Z,1018.30
2019-06-26T09:08:46.038Z,1018.29
2019-06-26T09:09:46.470Z,1018.22
2019-06-26T09:10:47.026Z,1018.27
2019-06-26T09:11:47.460Z,1018.29
2019-06-26T09:12:48.933Z,1018.36
2019-06-26T09:13:49.418Z,1018.31
2019-06-26T09:14:49.976Z,1018.25
2019-06-26T09:15:50.431Z,1018.38
2019-06-26T09:16:50.907Z,1018.32
2019-06-26T09:17:51.332Z,1018.43
2019-06-26T09:18:52.868Z,1018.34
2019-06-26T09:19:53.318Z,1018.31
2019-06-26T09:20:53.843Z,1018.36
2019-06-26T09:21:54.292Z,1018.39
2019-06-26T09:22:57.108Z,1018.44
2019-06-26T09:23:57.747Z,1018.37
2019-06-26T09:24:58.340Z,1018.41
2019-06-26T09:25:58.864Z,1018.44
2019-06-26T09:26:59.391Z,1018.46
2019-06-26T09:27:59.928Z,1018.40
2019-06-26T09:29:00.398Z,1018.49
2019-06-26T09:30:00.881Z,1018.45
2019-06-26T09:31:01.784Z,1018.54
2019-06-26T09:32:02.218Z,1018.46
2019-06-26T09:33:02.968Z,1018.46
2019-06-26T09:34:03.425Z,1018.50
2019-06-26T09:35:03.919Z,1018.46
2019-06-26T09:36:06.855Z,1018.45
2019-06-26T09:37:07.708Z,1018.46
2019-06-26T09:38:08.176Z,1018.48
2019-06-26T09:39:08.641Z,1018.43
2019-06-26T09:40:09.126Z,1018.47
2019-06-26T09:41:09.675Z,1018.50
2019-06-26T09:42:10.111Z,1018.51
2019-06-26T09:43:11.628Z,1018.57
2019-06-26T09:44:12.260Z,1018.54
2019-06-26T09:45:12.799Z,1018.56
2019-06-26T09:46:13.272Z,1018.46
2019-06-26T09:47:15.658Z,1018.59
2019-06-26T09:48:16.240Z,1018.54
2019-06-26T09:49:16.793Z,1018.45
2019-06-26T09:50:17.253Z,1018.45
2019-06-26T09:51:17.726Z,1018.54
2019-06-26T09:52:18.272Z,1018.50
2019-06-26T09:53:18.773Z,1018.48
2019-06-26T09:54:19.213Z,1018.49
2019-06-26T09:55:19.746Z,1018.44
2019-06-26T09:56:20.203Z,1018.45
2019-06-26T09:57:21.684Z,1018.50
2019-06-26T09:58:22.123Z,1018.48
2019-06-26T09:59:22.911Z,1018.50
2019-06-26T10:00:23.409Z,1018.42
2019-06-26T10:01:23.939Z,1018.48
2019-06-26T10:02:24.374Z,1018.47
2019-06-26T10:03:24.802Z,1018.47
2019-06-26T10:04:25.229Z,1018.42
2019-06-26T10:05:25.687Z,1018.40
2019-06-26T10:06:26.116Z,1018.38
2019-06-26T10:07:26.537Z,1018.43
2019-06-26T10:08:26.971Z,1018.40
2019-06-26T10:09:27.421Z,1018.42
2019-06-26T10:10:27.884Z,1018.48
2019-06-26T10:11:28.335Z,1018.46
2019-06-26T10:12:28.846Z,1018.46
2019-06-26T10:13:29.303Z,1018.51
2019-06-26T10:14:46.529Z,1018.48
2019-06-26T10:15:36.186Z,1018.42
2019-06-26T10:16:36.629Z,1018.45
2019-06-26T10:17:37.093Z,1018.47
2019-06-26T10:18:38.532Z,1018.45
2019-06-26T10:19:38.982Z,1018.45
2019-06-26T10:20:39.429Z,1018.47
2019-06-26T10:21:39.875Z,1018.51
2019-06-26T10:22:40.307Z,1018.43
2019-06-26T10:23:40.742Z,1018.45
2019-06-26T10:24:41.169Z,1018.49
2019-06-26T10:25:41.625Z,1018.47
2019-06-26T10:26:42.062Z,1018.47
2019-06-26T10:27:42.508Z,1018.48
2019-06-26T10:28:42.953Z,1018.49
2019-06-26T10:29:43.374Z,1018.46
2019-06-26T10:30:43.897Z,1018.41
2019-06-26T10:31:44.353Z,1018.42
2019-06-26T10:32:44.786Z,1018.41
2019-06-26T10:33:45.233Z,1018.40
2019-06-26T10:34:45.776Z,1018.43
2019-06-26T10:35:46.242Z,1018.42
2019-06-26T10:36:46.746Z,1018.42
2019-06-26T10:37:47.252Z,1018.41
2019-06-26T10:38:47.767Z,1018.50
2019-06-26T10:39:48.197Z,1018.49
2019-06-26T10:40:48.741Z,1018.44
2019-06-26T10:41:49.172Z,1018.47
2019-06-26T10:42:50.856Z,1018.47
2019-06-26T10:43:51.449Z,1018.54
2019-06-26T10:44:51.911Z,1018.53
2019-06-26T10:45:52.366Z,1018.59
2019-06-26T10:46:52.835Z,1018.57
2019-06-26T10:47:53.265Z,1018.58
2019-06-26T10:48:53.836Z,1018.56
2019-06-26T10:49:54.411Z,1018.65
2019-06-26T10:50:58.832Z,1018.60
2019-06-26T10:51:59.626Z,1018.62
2019-06-26T10:53:00.057Z,1018.62
2019-06-26T10:54:00.487Z,1018.65
2019-06-26T10:55:00.977Z,1018.55
2019-06-26T10:56:01.424Z,1018.55
2019-06-26T10:57:01.914Z,1018.50
2019-06-26T10:58:02.457Z,1018.57
2019-06-26T10:59:03.089Z,1018.53
2019-06-26T11:00:03.547Z,1018.59
2019-06-26T11:01:04.051Z,1018.51
2019-06-26T11:02:04.622Z,1018.55
2019-06-26T11:03:05.150Z,1018.57
2019-06-26T11:04:05.605Z,1018.56
2019-06-26T11:05:06.169Z,1018.53
2019-06-26T11:06:06.632Z,1018.55
2019-06-26T11:07:07.074Z,1018.61
2019-06-26T11:08:09.424Z,1018.57
2019-06-26T11:09:09.863Z,1018.54
2019-06-26T11:10:10.406Z,1018.58
2019-06-26T11:11:11.393Z,1018.57
2019-06-26T11:12:12.991Z,1018.61
2019-06-26T11:13:13.475Z,1018.59
2019-06-26T11:14:14.020Z,1018.53
2019-06-26T11:15:14.583Z,1018.58
2019-06-26T11:16:15.257Z,1018.59
2019-06-26T11:17:15.713Z,1018.58
2019-06-26T11:18:16.603Z,1018.53
2019-06-26T11:19:17.338Z,1018.48
2019-06-26T11:20:17.925Z,1018.53
2019-06-26T11:21:18.434Z,1018.53
2019-06-26T11:22:18.992Z,1018.52
2019-06-26T11:23:19.447Z,1018.55
2019-06-26T11:24:20.052Z,1018.55
2019-06-26T11:25:20.488Z,1018.63
2019-06-26T11:26:21.126Z,1018.61
2019-06-26T11:27:21.572Z,1018.62
2019-06-26T11:28:22.201Z,1018.65
2019-06-26T11:29:22.622Z,1018.68
2019-06-26T11:30:23.062Z,1018.65
2019-06-26T11:31:23.717Z,1018.63
2019-06-26T11:32:24.143Z,1018.66
2019-06-26T11:33:24.682Z,1018.62
2019-06-26T11:34:25.145Z,1018.60
2019-06-26T11:35:26.774Z,1018.63
2019-06-26T11:36:27.252Z,1018.65
2019-06-26T11:37:29.871Z,1018.60
2019-06-26T11:38:30.366Z,1018.63
2019-06-26T11:39:30.920Z,1018.54
2019-06-26T11:40:31.369Z,1018.64
2019-06-26T11:41:31.910Z,1018.67
2019-06-26T11:42:32.900Z,1018.66
2019-06-26T11:43:33.494Z,1018.65
2019-06-26T11:44:33.930Z,1018.61
2019-06-26T11:50:44.307Z,1018.58
2019-06-26T11:55:29.736Z,1018.49
2019-06-26T11:56:30.174Z,1018.57
2019-06-26T11:57:30.600Z,1018.48
2019-06-26T11:58:31.035Z,1018.50
2019-06-26T11:59:31.471Z,1018.56
2019-06-26T12:00:31.949Z,1018.45
2019-06-26T12:01:32.391Z,1018.42
2019-06-26T12:02:32.830Z,1018.46
2019-06-26T12:03:33.271Z,1018.49
2019-06-26T12:04:33.705Z,1018.47
2019-06-26T12:05:34.153Z,1018.41
2019-06-26T12:06:34.707Z,1018.47
2019-06-26T12:07:35.165Z,1018.44
2019-06-26T12:08:35.601Z,1018.46
2019-06-26T12:09:36.041Z,1018.50
2019-06-26T12:10:36.461Z,1018.49
2019-06-26T12:11:36.908Z,1018.50
2019-06-26T12:12:37.336Z,1018.53
2019-06-26T12:13:37.778Z,1018.51
2019-06-26T12:14:38.196Z,1018.49
2019-06-26T12:15:38.626Z,1018.46
2019-06-26T12:16:39.090Z,1018.36
2019-06-26T12:17:39.549Z,1018.35
2019-06-26T12:18:40.051Z,1018.32
2019-06-26T12:19:40.529Z,1018.33
2019-06-26T12:20:40.968Z,1018.31
2019-06-26T12:21:41.423Z,1018.31
2019-06-26T12:22:41.877Z,1018.39
2019-06-26T12:23:42.311Z,1018.39
2019-06-26T12:24:42.733Z,1018.30
2019-06-26T12:25:43.162Z,1018.29
2019-06-26T12:26:43.617Z,1018.31
2019-06-26T12:27:44.056Z,1018.29
2019-06-26T12:28:44.497Z,1018.23
2019-06-26T12:29:45.007Z,1018.22
2019-06-26T12:30:45.453Z,1018.27
2019-06-26T12:31:45.931Z,1018.20
2019-06-26T12:33:01.640Z,1018.24
2019-06-26T12:33:52.772Z,1018.21
2019-06-26T12:34:53.208Z,1018.27
2019-06-26T12:35:53.643Z,1018.17
2019-06-26T12:36:54.090Z,1018.24
2019-06-26T12:37:54.546Z,1018.27
2019-06-26T12:38:56.241Z,1018.26
2019-06-26T12:39:57.703Z,1018.26
2019-06-26T12:40:58.151Z,1018.26
2019-06-26T12:41:58.607Z,1018.27
2019-06-26T12:42:59.031Z,1018.31
2019-06-26T12:43:59.463Z,1018.30
2019-06-26T12:44:59.890Z,1018.38
2019-06-26T12:46:01.343Z,1018.33
2019-06-26T12:47:01.809Z,1018.32
2019-06-26T12:48:02.247Z,1018.31
2019-06-26T12:49:02.671Z,1018.31
2019-06-26T12:50:03.113Z,1018.25
2019-06-26T12:51:03.583Z,1018.30
2019-06-26T12:52:04.064Z,1018.30
2019-06-26T12:53:04.488Z,1018.26
2019-06-26T12:54:04.916Z,1018.33
2019-06-26T12:55:05.404Z,1018.24
2019-06-26T12:56:05.857Z,1018.29
2019-06-26T12:57:06.341Z,1018.33
2019-06-26T12:58:14.076Z,1018.33
2019-06-26T12:59:13.321Z,1018.34
2019-06-26T13:00:13.903Z,1018.31
2019-06-26T13:01:14.360Z,1018.30
2019-06-26T13:02:14.809Z,1018.28
2019-06-26T13:03:15.250Z,1018.32
2019-06-26T13:04:15.767Z,1018.28
2019-06-26T13:05:17.306Z,1018.33
2019-06-26T13:06:18.770Z,1018.26
2019-06-26T13:07:19.335Z,1018.36
2019-06-26T13:08:19.783Z,1018.31
2019-06-26T13:09:20.310Z,1018.38
2019-06-26T13:10:20.866Z,1018.37
2019-06-26T13:11:21.348Z,1018.29
2019-06-26T13:12:21.800Z,1018.35
2019-06-26T13:13:22.285Z,1018.33
2019-06-26T13:14:22.711Z,1018.32
2019-06-26T13:15:29.869Z,1018.26
2019-06-26T13:16:30.354Z,1018.39